sensor_id;sensor_type;location;lat;lon;timestamp;pressure;altitude;pressure_sealevel;temperature;humidity
58686;BME280;44465;53.206;-6.106;2022-08-19T00:01:21;101014.78;;;24.60;49.58
58686;BME280;44465;53.206;-6.106;2022-08-19T00:03:47;101022.78;;;24.62;49.71
58686;BME280;44465;53.206;-6.106;2022-08-19T00:06:14;101022.69;;;24.63;49.66
58686;BME280;44465;53.206;-6.106;2022-08-19T00:08:39;101003.94;;;24.62;49.43
58686;BME280;44465;53.206;-6.106;2022-08-19T00:11:05;101012.41;;;24.56;49.35
58686;BME280;44465;53.206;-6.106;2022-08-19T00:13:31;101044.09;;;24.65;49.55
58686;BME280;44465;53.206;-6.106;2022-08-19T00:15:57;101047.69;;;24.66;49.45
58686;BME280;44465;53.206;-6.106;2022-08-19T00:18:24;101042.38;;;24.64;49.44
58686;BME280;44465;53.206;-6.106;2022-08-19T00:20:49;101044.09;;;24.65;49.41
58686;BME280;44465;53.206;-6.106;2022-08-19T00:23:15;101041.41;;;24.65;49.62
58686;BME280;44465;53.206;-6.106;2022-08-19T00:25:41;101049.47;;;24.65;49.37
58686;BME280;44465;53.206;-6.106;2022-08-19T00:28:06;101054.88;;;24.65;49.33
58686;BME280;44465;53.206;-6.106;2022-08-19T00:30:32;101044.31;;;24.62;49.55
58686;BME280;44465;53.206;-6.106;2022-08-19T00:32:58;101030.50;;;24.54;49.70
58686;BME280;44465;53.206;-6.106;2022-08-19T00:35:24;101015.03;;;24.57;49.71
58686;BME280;44465;53.206;-6.106;2022-08-19T00:37:50;101020.59;;;24.54;49.42
58686;BME280;44465;53.206;-6.106;2022-08-19T00:40:17;101013.50;;;24.53;49.53
58686;BME280;44465;53.206;-6.106;2022-08-19T00:42:44;101020.72;;;24.53;49.50
58686;BME280;44465;53.206;-6.106;2022-08-19T00:45:17;101038.69;;;24.52;49.18
58686;BME280;44465;53.206;-6.106;2022-08-19T00:47:44;101020.72;;;24.53;49.86
58686;BME280;44465;53.206;-6.106;2022-08-19T00:50:12;101028.69;;;24.54;49.60
58686;BME280;44465;53.206;-6.106;2022-08-19T00:52:42;101010.69;;;24.55;49.65
58686;BME280;44465;53.206;-6.106;2022-08-19T00:55:13;101018.88;;;24.53;49.63
58686;BME280;44465;53.206;-6.106;2022-08-19T00:57:45;101016.28;;;24.52;49.48
58686;BME280;44465;53.206;-6.106;2022-08-19T01:00:15;101016.06;;;24.55;49.73
58686;BME280;44465;53.206;-6.106;2022-08-19T01:02:42;101018.69;;;24.56;49.29
58686;BME280;44465;53.206;-6.106;2022-08-19T01:05:11;101025.09;;;24.54;49.62
58686;BME280;44465;53.206;-6.106;2022-08-19T01:07:39;101022.34;;;24.55;49.38
58686;BME280;44465;53.206;-6.106;2022-08-19T01:10:11;101029.53;;;24.55;49.39
58686;BME280;44465;53.206;-6.106;2022-08-19T01:12:38;101019.72;;;24.54;49.51
58686;BME280;44465;53.206;-6.106;2022-08-19T01:15:07;101033.28;;;24.52;49.24
58686;BME280;44465;53.206;-6.106;2022-08-19T01:17:36;101038.78;;;24.51;49.56
58686;BME280;44465;53.206;-6.106;2022-08-19T01:20:04;101047.94;;;24.48;49.57
58686;BME280;44465;53.206;-6.106;2022-08-19T01:22:41;101032.84;;;24.45;49.46
58686;BME280;44465;53.206;-6.106;2022-08-19T01:25:08;101034.75;;;24.43;49.75
58686;BME280;44465;53.206;-6.106;2022-08-19T01:27:42;101031.34;;;24.41;49.66
58686;BME280;44465;53.206;-6.106;2022-08-19T01:30:10;101039.50;;;24.40;49.55
58686;BME280;44465;53.206;-6.106;2022-08-19T01:32:35;101042.75;;;24.45;49.78
58686;BME280;44465;53.206;-6.106;2022-08-19T01:35:02;101043.59;;;24.45;49.62
58686;BME280;44465;53.206;-6.106;2022-08-19T01:37:29;101047.19;;;24.46;49.96
58686;BME280;44465;53.206;-6.106;2022-08-19T01:39:55;101043.53;;;24.47;49.47
58686;BME280;44465;53.206;-6.106;2022-08-19T01:42:21;101040.06;;;24.45;49.48
58686;BME280;44465;53.206;-6.106;2022-08-19T01:44:47;101056.88;;;24.48;49.65
58686;BME280;44465;53.206;-6.106;2022-08-19T01:47:14;101054.38;;;24.45;49.68
58686;BME280;44465;53.206;-6.106;2022-08-19T01:49:39;101065.13;;;24.45;49.39
58686;BME280;44465;53.206;-6.106;2022-08-19T01:52:06;101072.25;;;24.46;49.64
58686;BME280;44465;53.206;-6.106;2022-08-19T01:54:32;101056.53;;;24.40;49.62
58686;BME280;44465;53.206;-6.106;2022-08-19T01:57:02;101075.91;;;24.45;49.30
58686;BME280;44465;53.206;-6.106;2022-08-19T01:59:29;101071.47;;;24.44;49.67
58686;BME280;44465;53.206;-6.106;2022-08-19T02:01:55;101065.66;;;24.38;49.47
58686;BME280;44465;53.206;-6.106;2022-08-19T02:04:20;101076.22;;;24.41;49.64
58686;BME280;44465;53.206;-6.106;2022-08-19T02:06:46;101066.63;;;24.37;49.65
58686;BME280;44465;53.206;-6.106;2022-08-19T02:09:13;101064.78;;;24.37;49.71
58686;BME280;44465;53.206;-6.106;2022-08-19T02:11:39;101069.41;;;24.35;49.72
58686;BME280;44465;53.206;-6.106;2022-08-19T02:14:06;101067.47;;;24.37;49.99
58686;BME280;44465;53.206;-6.106;2022-08-19T02:16:32;101077.28;;;24.38;50.01
58686;BME280;44465;53.206;-6.106;2022-08-19T02:18:58;101071.06;;;24.38;49.75
58686;BME280;44465;53.206;-6.106;2022-08-19T02:21:28;101081.69;;;24.39;49.96
58686;BME280;44465;53.206;-6.106;2022-08-19T02:23:53;101075.44;;;24.39;49.72
58686;BME280;44465;53.206;-6.106;2022-08-19T02:26:21;101081.69;;;24.39;49.75
58686;BME280;44465;53.206;-6.106;2022-08-19T02:28:46;101072.75;;;24.39;49.54
58686;BME280;44465;53.206;-6.106;2022-08-19T02:31:15;101078.06;;;24.40;49.61
58686;BME280;44465;53.206;-6.106;2022-08-19T02:33:42;101068.25;;;24.39;49.64
58686;BME280;44465;53.206;-6.106;2022-08-19T02:36:08;101068.25;;;24.39;49.87
58686;BME280;44465;53.206;-6.106;2022-08-19T02:38:34;101064.78;;;24.37;49.80
58686;BME280;44465;53.206;-6.106;2022-08-19T02:41:03;101071.06;;;24.38;49.86
58686;BME280;44465;53.206;-6.106;2022-08-19T02:43:30;101065.94;;;24.33;49.88
58686;BME280;44465;53.206;-6.106;2022-08-19T02:45:57;101080.28;;;24.34;49.72
58686;BME280;44465;53.206;-6.106;2022-08-19T02:48:24;101070.47;;;24.32;49.79
58686;BME280;44465;53.206;-6.106;2022-08-19T02:50:51;101077.78;;;24.30;49.93
58686;BME280;44465;53.206;-6.106;2022-08-19T02:53:26;101073.47;;;24.28;49.89
58686;BME280;44465;53.206;-6.106;2022-08-19T02:55:53;101075.19;;;24.29;49.71
58686;BME280;44465;53.206;-6.106;2022-08-19T02:58:20;101071.53;;;24.30;49.65
58686;BME280;44465;53.206;-6.106;2022-08-19T03:00:49;101067.88;;;24.31;49.86
58686;BME280;44465;53.206;-6.106;2022-08-19T03:03:15;101075.00;;;24.32;49.90
58686;BME280;44465;53.206;-6.106;2022-08-19T03:05:41;101065.19;;;24.31;49.83
58686;BME280;44465;53.206;-6.106;2022-08-19T03:08:08;101051.81;;;24.29;49.70
58686;BME280;44465;53.206;-6.106;2022-08-19T03:10:45;101065.19;;;24.31;49.87
58686;BME280;44465;53.206;-6.106;2022-08-19T03:13:16;101064.25;;;24.32;49.75
58686;BME280;44465;53.206;-6.106;2022-08-19T03:15:44;101049.13;;;24.29;49.90
58686;BME280;44465;53.206;-6.106;2022-08-19T03:18:11;101061.53;;;24.32;50.03
58686;BME280;44465;53.206;-6.106;2022-08-19T03:20:44;101069.63;;;24.32;49.87
58686;BME280;44465;53.206;-6.106;2022-08-19T03:23:11;101089.41;;;24.31;49.60
58686;BME280;44465;53.206;-6.106;2022-08-19T03:25:41;101064.81;;;24.23;50.20
58686;BME280;44465;53.206;-6.106;2022-08-19T03:28:09;101080.00;;;24.24;49.90
58686;BME280;44465;53.206;-6.106;2022-08-19T03:30:35;101057.16;;;24.16;50.12
58686;BME280;44465;53.206;-6.106;2022-08-19T03:33:01;101083.56;;;24.24;50.16
58686;BME280;44465;53.206;-6.106;2022-08-19T03:35:27;101076.75;;;24.19;50.26
58686;BME280;44465;53.206;-6.106;2022-08-19T03:37:53;101087.31;;;24.22;49.91
58686;BME280;44465;53.206;-6.106;2022-08-19T03:40:18;101075.88;;;24.18;50.14
58686;BME280;44465;53.206;-6.106;2022-08-19T03:42:44;101077.31;;;24.24;50.01
58686;BME280;44465;53.206;-6.106;2022-08-19T03:45:11;101082.69;;;24.24;49.96
58686;BME280;44465;53.206;-6.106;2022-08-19T03:47:37;101066.94;;;24.17;49.98
58686;BME280;44465;53.206;-6.106;2022-08-19T03:50:04;101083.47;;;24.26;50.16
58686;BME280;44465;53.206;-6.106;2022-08-19T03:52:30;101088.00;;;24.25;49.89
58686;BME280;44465;53.206;-6.106;2022-08-19T03:54:55;101060.19;;;24.25;50.09
58686;BME280;44465;53.206;-6.106;2022-08-19T03:57:21;101079.91;;;24.25;49.84
58686;BME280;44465;53.206;-6.106;2022-08-19T03:59:46;101083.47;;;24.26;49.88
58686;BME280;44465;53.206;-6.106;2022-08-19T04:02:12;101079.81;;;24.27;49.82
58686;BME280;44465;53.206;-6.106;2022-08-19T04:04:40;101072.81;;;24.24;49.83
58686;BME280;44465;53.206;-6.106;2022-08-19T04:07:07;101079.91;;;24.25;49.95
58686;BME280;44465;53.206;-6.106;2022-08-19T04:09:34;101083.56;;;24.24;49.88
58686;BME280;44465;53.206;-6.106;2022-08-19T04:12:02;101083.88;;;24.20;49.88
58686;BME280;44465;53.206;-6.106;2022-08-19T04:14:31;101086.56;;;24.20;50.00
58686;BME280;44465;53.206;-6.106;2022-08-19T04:16:58;101074.25;;;24.15;50.03
58686;BME280;44465;53.206;-6.106;2022-08-19T04:19:24;101084.94;;;24.17;49.98
58686;BME280;44465;53.206;-6.106;2022-08-19T04:21:52;101088.47;;;24.17;50.14
58686;BME280;44465;53.206;-6.106;2022-08-19T04:24:19;101096.56;;;24.17;49.90
58686;BME280;44465;53.206;-6.106;2022-08-19T04:26:46;101082.13;;;24.19;50.24
58686;BME280;44465;53.206;-6.106;2022-08-19T04:29:19;101095.59;;;24.19;49.96
58686;BME280;44465;53.206;-6.106;2022-08-19T04:31:47;101088.47;;;24.17;50.00
58686;BME280;44465;53.206;-6.106;2022-08-19T04:34:15;101089.25;;;24.20;50.03
58686;BME280;44465;53.206;-6.106;2022-08-19T04:36:42;101095.59;;;24.19;50.02
58686;BME280;44465;53.206;-6.106;2022-08-19T04:39:15;101093.75;;;24.19;50.10
58686;BME280;44465;53.206;-6.106;2022-08-19T04:41:41;101108.09;;;24.20;49.99
58686;BME280;44465;53.206;-6.106;2022-08-19T04:44:26;101099.25;;;24.17;49.91
58686;BME280;44465;53.206;-6.106;2022-08-19T04:46:52;101100.00;;;24.20;50.00
58686;BME280;44465;53.206;-6.106;2022-08-19T04:49:20;101110.00;;;24.17;49.92
58686;BME280;44465;53.206;-6.106;2022-08-19T04:51:47;101118.19;;;24.16;49.98
58686;BME280;44465;53.206;-6.106;2022-08-19T04:54:14;101114.06;;;24.10;50.01
58686;BME280;44465;53.206;-6.106;2022-08-19T04:56:40;101126.53;;;24.11;50.20
58686;BME280;44465;53.206;-6.106;2022-08-19T04:59:06;101128.25;;;24.12;50.06
58686;BME280;44465;53.206;-6.106;2022-08-19T05:01:33;101123.94;;;24.10;50.17
58686;BME280;44465;53.206;-6.106;2022-08-19T05:04:00;101129.25;;;24.11;50.04
58686;BME280;44465;53.206;-6.106;2022-08-19T05:06:27;101131.16;;;24.09;50.14
58686;BME280;44465;53.206;-6.106;2022-08-19T05:08:54;101125.78;;;24.09;50.00
58686;BME280;44465;53.206;-6.106;2022-08-19T05:11:27;101131.94;;;24.11;49.94
58686;BME280;44465;53.206;-6.106;2022-08-19T05:13:54;101121.16;;;24.11;50.28
58686;BME280;44465;53.206;-6.106;2022-08-19T05:16:21;101122.88;;;24.12;50.24
58686;BME280;44465;53.206;-6.106;2022-08-19T05:18:47;101127.97;;;24.03;50.33
58686;BME280;44465;53.206;-6.106;2022-08-19T05:21:32;101125.00;;;24.07;50.20
58686;BME280;44465;53.206;-6.106;2022-08-19T05:24:17;101114.25;;;24.07;49.95
58686;BME280;44465;53.206;-6.106;2022-08-19T05:26:46;101124.72;;;24.12;50.10
58686;BME280;44465;53.206;-6.106;2022-08-19T05:29:16;101131.94;;;24.11;50.12
58686;BME280;44465;53.206;-6.106;2022-08-19T05:31:43;101137.31;;;24.11;50.17
58686;BME280;44465;53.206;-6.106;2022-08-19T05:34:09;101137.31;;;24.11;49.83
58686;BME280;44465;53.206;-6.106;2022-08-19T05:36:41;101145.56;;;24.08;50.07
58686;BME280;44465;53.206;-6.106;2022-08-19T05:39:10;101146.63;;;24.06;49.99
58686;BME280;44465;53.206;-6.106;2022-08-19T05:41:41;101148.53;;;24.04;50.21
58686;BME280;44465;53.206;-6.106;2022-08-19T05:44:07;101151.31;;;24.02;50.20
58686;BME280;44465;53.206;-6.106;2022-08-19T05:46:34;101159.19;;;24.05;50.17
58686;BME280;44465;53.206;-6.106;2022-08-19T05:49:00;101162.00;;;24.04;50.10
58686;BME280;44465;53.206;-6.106;2022-08-19T05:51:26;101157.47;;;24.04;50.06
58686;BME280;44465;53.206;-6.106;2022-08-19T05:53:52;101164.59;;;24.05;49.97
58686;BME280;44465;53.206;-6.106;2022-08-19T05:56:18;101164.50;;;24.07;50.13
58686;BME280;44465;53.206;-6.106;2022-08-19T05:58:45;101157.47;;;24.04;49.96
58686;BME280;44465;53.206;-6.106;2022-08-19T06:01:13;101159.00;;;24.08;50.02
58686;BME280;44465;53.206;-6.106;2022-08-19T06:03:39;101150.84;;;24.10;49.90
58686;BME280;44465;53.206;-6.106;2022-08-19T06:06:07;101157.09;;;24.10;49.87
58686;BME280;44465;53.206;-6.106;2022-08-19T06:08:33;101157.09;;;24.10;50.13
58686;BME280;44465;53.206;-6.106;2022-08-19T06:11:13;101146.53;;;24.07;50.00
58686;BME280;44465;53.206;-6.106;2022-08-19T06:13:39;101149.09;;;24.09;49.99
58686;BME280;44465;53.206;-6.106;2022-08-19T06:16:04;101163.50;;;24.08;50.24
58686;BME280;44465;53.206;-6.106;2022-08-19T06:18:30;101159.00;;;24.08;50.07
58686;BME280;44465;53.206;-6.106;2022-08-19T06:20:56;101162.66;;;24.07;49.78
58686;BME280;44465;53.206;-6.106;2022-08-19T06:23:22;101154.69;;;24.06;50.05
58686;BME280;44465;53.206;-6.106;2022-08-19T06:25:47;101155.72;;;24.03;50.16
58686;BME280;44465;53.206;-6.106;2022-08-19T06:28:13;101155.84;;;24.01;50.07
58686;BME280;44465;53.206;-6.106;2022-08-19T06:30:38;101159.50;;;24.00;50.14
58686;BME280;44465;53.206;-6.106;2022-08-19T06:33:04;101162.28;;;23.99;50.06
58686;BME280;44465;53.206;-6.106;2022-08-19T06:35:30;101157.88;;;23.98;49.94
58686;BME280;44465;53.206;-6.106;2022-08-19T06:37:56;101157.69;;;24.01;49.92
58686;BME280;44465;53.206;-6.106;2022-08-19T06:40:21;101156.28;;;23.94;49.95
58686;BME280;44465;53.206;-6.106;2022-08-19T06:42:47;101164.03;;;24.00;49.95
58686;BME280;44465;53.206;-6.106;2022-08-19T06:45:13;101163.81;;;24.03;50.20
58686;BME280;44465;53.206;-6.106;2022-08-19T06:47:40;101161.13;;;24.03;49.97
58686;BME280;44465;53.206;-6.106;2022-08-19T06:50:05;101163.25;;;23.98;49.87
58686;BME280;44465;53.206;-6.106;2022-08-19T06:52:34;101170.16;;;24.02;50.06
58686;BME280;44465;53.206;-6.106;2022-08-19T06:55:01;101177.25;;;24.03;50.10
58686;BME280;44465;53.206;-6.106;2022-08-19T06:57:27;101178.31;;;24.00;50.04
58686;BME280;44465;53.206;-6.106;2022-08-19T06:59:56;101185.44;;;24.01;50.01
58686;BME280;44465;53.206;-6.106;2022-08-19T07:02:22;101188.91;;;24.04;50.08
58686;BME280;44465;53.206;-6.106;2022-08-19T07:04:52;101188.00;;;24.03;49.87
58686;BME280;44465;53.206;-6.106;2022-08-19T07:07:18;101190.81;;;24.01;49.67
58686;BME280;44465;53.206;-6.106;2022-08-19T07:09:44;101188.22;;;24.00;50.00
58686;BME280;44465;53.206;-6.106;2022-08-19T07:12:11;101191.00;;;23.98;49.76
58686;BME280;44465;53.206;-6.106;2022-08-19T07:14:39;101187.44;;;23.98;49.94
58686;BME280;44465;53.206;-6.106;2022-08-19T07:17:08;101199.06;;;23.98;49.76
58686;BME280;44465;53.206;-6.106;2022-08-19T07:19:36;101200.91;;;23.98;50.01
58686;BME280;44465;53.206;-6.106;2022-08-19T07:22:04;101210.03;;;23.95;49.96
58686;BME280;44465;53.206;-6.106;2022-08-19T07:24:30;101192.06;;;23.96;49.87
58686;BME280;44465;53.206;-6.106;2022-08-19T07:26:58;101199.94;;;23.99;49.89
58686;BME280;44465;53.206;-6.106;2022-08-19T07:29:27;101199.00;;;24.00;49.87
58686;BME280;44465;53.206;-6.106;2022-08-19T07:31:55;101199.00;;;24.00;49.95
58686;BME280;44465;53.206;-6.106;2022-08-19T07:34:25;101199.84;;;24.00;49.86
58686;BME280;44465;53.206;-6.106;2022-08-19T07:36:52;101212.34;;;24.01;49.92
58686;BME280;44465;53.206;-6.106;2022-08-19T07:39:21;101213.19;;;24.02;49.84
58686;BME280;44465;53.206;-6.106;2022-08-19T07:41:47;101214.06;;;24.03;49.73
58686;BME280;44465;53.206;-6.106;2022-08-19T07:44:14;101213.19;;;24.02;49.79
58686;BME280;44465;53.206;-6.106;2022-08-19T07:46:43;101217.81;;;24.00;50.01
58686;BME280;44465;53.206;-6.106;2022-08-19T07:49:11;101223.88;;;24.04;49.93
58686;BME280;44465;53.206;-6.106;2022-08-19T07:51:43;101209.75;;;24.00;49.89
58686;BME280;44465;53.206;-6.106;2022-08-19T07:54:09;101212.44;;;24.00;49.51
58686;BME280;44465;53.206;-6.106;2022-08-19T07:56:34;101219.63;;;23.99;49.81
58686;BME280;44465;53.206;-6.106;2022-08-19T07:59:00;101223.38;;;23.97;49.72
58686;BME280;44465;53.206;-6.106;2022-08-19T08:01:27;101233.19;;;23.98;49.48
58686;BME280;44465;53.206;-6.106;2022-08-19T08:03:54;101236.81;;;23.97;49.41
58686;BME280;44465;53.206;-6.106;2022-08-19T08:06:41;101222.59;;;23.95;49.40
58686;BME280;44465;53.206;-6.106;2022-08-19T08:09:30;101227.16;;;23.93;49.50
58686;BME280;44465;53.206;-6.106;2022-08-19T08:12:08;101235.09;;;23.96;49.45
58686;BME280;44465;53.206;-6.106;2022-08-19T08:14:48;101235.97;;;23.96;49.37
58686;BME280;44465;53.206;-6.106;2022-08-19T08:17:16;101245.84;;;23.96;49.63
58686;BME280;44465;53.206;-6.106;2022-08-19T08:19:43;101247.41;;;24.00;49.56
58686;BME280;44465;53.206;-6.106;2022-08-19T08:22:11;101251.72;;;24.03;49.53
58686;BME280;44465;53.206;-6.106;2022-08-19T08:24:55;101256.22;;;24.02;49.30
58686;BME280;44465;53.206;-6.106;2022-08-19T08:27:24;101258.91;;;24.02;49.38
58686;BME280;44465;53.206;-6.106;2022-08-19T08:29:49;101257.97;;;24.03;49.64
58686;BME280;44465;53.206;-6.106;2022-08-19T08:32:15;101256.03;;;24.05;49.51
58686;BME280;44465;53.206;-6.106;2022-08-19T08:34:41;101256.03;;;24.05;49.58
58686;BME280;44465;53.206;-6.106;2022-08-19T08:37:07;101254.25;;;24.06;49.51
58686;BME280;44465;53.206;-6.106;2022-08-19T08:39:32;101247.03;;;24.06;49.55
58686;BME280;44465;53.206;-6.106;2022-08-19T08:42:22;101229.72;;;23.96;49.63
58686;BME280;44465;53.206;-6.106;2022-08-19T08:45:10;101243.94;;;23.98;49.62
58686;BME280;44465;53.206;-6.106;2022-08-19T08:47:41;101234.03;;;23.98;49.56
58686;BME280;44465;53.206;-6.106;2022-08-19T08:50:19;101219.84;;;23.96;49.57
58686;BME280;44465;53.206;-6.106;2022-08-19T08:52:52;101226.06;;;23.97;49.48
58686;BME280;44465;53.206;-6.106;2022-08-19T08:55:26;101243.16;;;23.96;49.32
58686;BME280;44465;53.206;-6.106;2022-08-19T08:58:14;101233.34;;;23.95;49.21
58686;BME280;44465;53.206;-6.106;2022-08-19T09:00:46;101244.78;;;23.98;49.23
58686;BME280;44465;53.206;-6.106;2022-08-19T09:03:19;101244.13;;;23.95;49.40
58686;BME280;44465;53.206;-6.106;2022-08-19T09:14:29;101250.16;;;23.98;49.50
58686;BME280;44465;53.206;-6.106;2022-08-19T09:16:57;101238.38;;;24.01;49.28
58686;BME280;44465;53.206;-6.106;2022-08-19T09:19:23;101249.88;;;24.03;49.31
58686;BME280;44465;53.206;-6.106;2022-08-19T09:21:48;101250.66;;;24.05;49.38
58686;BME280;44465;53.206;-6.106;2022-08-19T09:24:15;101243.56;;;24.04;49.13
58686;BME280;44465;53.206;-6.106;2022-08-19T09:26:41;101239.91;;;24.05;49.08
58686;BME280;44465;53.206;-6.106;2022-08-19T09:29:09;101233.44;;;23.93;49.48
58686;BME280;44465;53.206;-6.106;2022-08-19T09:31:35;101237.84;;;23.94;49.25
58686;BME280;44465;53.206;-6.106;2022-08-19T09:34:00;101237.69;;;23.97;49.09
58686;BME280;44465;53.206;-6.106;2022-08-19T09:36:29;101228.13;;;23.92;49.29
58686;BME280;44465;53.206;-6.106;2022-08-19T09:38:57;101229.59;;;23.97;49.15
58686;BME280;44465;53.206;-6.106;2022-08-19T09:41:26;101237.69;;;23.97;49.09
58686;BME280;44465;53.206;-6.106;2022-08-19T09:43:53;101220.69;;;23.97;49.10
58686;BME280;44465;53.206;-6.106;2022-08-19T09:46:21;101230.31;;;24.01;49.01
58686;BME280;44465;53.206;-6.106;2022-08-19T09:48:47;101223.94;;;24.02;49.27
58686;BME280;44465;53.206;-6.106;2022-08-19T09:51:22;101221.19;;;24.04;49.28
58686;BME280;44465;53.206;-6.106;2022-08-19T09:53:49;101228.28;;;24.05;49.38
58686;BME280;44465;53.206;-6.106;2022-08-19T09:56:17;101231.75;;;24.07;49.20
58686;BME280;44465;53.206;-6.106;2022-08-19T09:58:42;101220.13;;;24.06;49.52
58686;BME280;44465;53.206;-6.106;2022-08-19T10:01:08;101221.84;;;24.07;49.43
58686;BME280;44465;53.206;-6.106;2022-08-19T10:03:35;101205.03;;;24.04;49.54
58686;BME280;44465;53.206;-6.106;2022-08-19T10:06:03;101221.66;;;24.10;49.30
58686;BME280;44465;53.206;-6.106;2022-08-19T10:08:33;101208.97;;;24.12;49.17
58686;BME280;44465;53.206;-6.106;2022-08-19T10:10:59;101203.59;;;24.12;49.14
58686;BME280;44465;53.206;-6.106;2022-08-19T10:13:30;101201.09;;;24.09;49.24
58686;BME280;44465;53.206;-6.106;2022-08-19T10:16:06;101216.28;;;24.10;49.60
58686;BME280;44465;53.206;-6.106;2022-08-19T10:18:33;101212.81;;;24.08;49.03
58686;BME280;44465;53.206;-6.106;2022-08-19T10:21:29;101217.44;;;24.06;49.18
58686;BME280;44465;53.206;-6.106;2022-08-19T10:23:58;101216.56;;;24.06;49.26
58686;BME280;44465;53.206;-6.106;2022-08-19T10:26:29;101213.69;;;24.09;49.19
58686;BME280;44465;53.206;-6.106;2022-08-19T10:28:56;101209.19;;;24.09;48.89
58686;BME280;44465;53.206;-6.106;2022-08-19T10:31:24;101218.78;;;24.13;49.03
58686;BME280;44465;53.206;-6.106;2022-08-19T10:33:51;101214.34;;;24.12;48.95
58686;BME280;44465;53.206;-6.106;2022-08-19T10:36:29;101223.41;;;24.11;49.29
58686;BME280;44465;53.206;-6.106;2022-08-19T10:38:58;101224.94;;;24.15;49.15
58686;BME280;44465;53.206;-6.106;2022-08-19T10:41:27;101231.19;;;24.16;49.07
58686;BME280;44465;53.206;-6.106;2022-08-19T10:43:55;101236.56;;;24.16;49.50
58686;BME280;44465;53.206;-6.106;2022-08-19T10:46:24;101222.34;;;24.14;49.33
58686;BME280;44465;53.206;-6.106;2022-08-19T10:48:49;101229.31;;;24.02;46.77
58686;BME280;44465;53.206;-6.106;2022-08-19T10:51:15;101230.41;;;23.83;47.10
58686;BME280;44465;53.206;-6.106;2022-08-19T10:54:00;101236.97;;;23.94;47.20
58686;BME280;44465;53.206;-6.106;2022-08-19T10:56:27;101242.69;;;24.04;46.57
58686;BME280;44465;53.206;-6.106;2022-08-19T10:59:12;101234.53;;;24.05;46.58
58686;BME280;44465;53.206;-6.106;2022-08-19T11:01:40;101237.19;;;23.91;46.86
58686;BME280;44465;53.206;-6.106;2022-08-19T11:04:06;101242.34;;;23.94;46.64
58686;BME280;44465;53.206;-6.106;2022-08-19T11:06:35;101236.66;;;24.00;46.03
58686;BME280;44465;53.206;-6.106;2022-08-19T11:09:02;101243.53;;;23.90;46.39
58686;BME280;44465;53.206;-6.106;2022-08-19T11:11:28;101253.84;;;23.81;46.38
58686;BME280;44465;53.206;-6.106;2022-08-19T11:13:54;101233.31;;;23.80;46.27
58686;BME280;44465;53.206;-6.106;2022-08-19T11:16:22;101252.50;;;23.74;46.54
58686;BME280;44465;53.206;-6.106;2022-08-19T11:18:51;101256.47;;;23.83;45.68
58686;BME280;44465;53.206;-6.106;2022-08-19T11:21:22;101259.59;;;23.75;46.23
58686;BME280;44465;53.206;-6.106;2022-08-19T11:23:50;101245.75;;;23.67;46.31
58686;BME280;44465;53.206;-6.106;2022-08-19T11:26:16;101245.94;;;23.64;45.99
58686;BME280;44465;53.206;-6.106;2022-08-19T11:28:43;101242.56;;;23.60;46.23
58686;BME280;44465;53.206;-6.106;2022-08-19T11:31:16;101243.63;;;23.58;46.11
58686;BME280;44465;53.206;-6.106;2022-08-19T11:33:42;101239.97;;;23.59;46.00
58686;BME280;44465;53.206;-6.106;2022-08-19T11:36:08;101233.81;;;23.57;46.21
58686;BME280;44465;53.206;-6.106;2022-08-19T11:38:35;101231.13;;;23.57;46.11
58686;BME280;44465;53.206;-6.106;2022-08-19T11:41:04;101232.09;;;23.55;46.08
58686;BME280;44465;53.206;-6.106;2022-08-19T11:43:30;101233.03;;;23.54;46.32
58686;BME280;44465;53.206;-6.106;2022-08-19T11:45:57;101232.09;;;23.55;46.26
58686;BME280;44465;53.206;-6.106;2022-08-19T11:48:23;101213.53;;;23.51;46.11
58686;BME280;44465;53.206;-6.106;2022-08-19T11:50:50;101231.41;;;23.52;46.30
58686;BME280;44465;53.206;-6.106;2022-08-19T11:53:17;101233.16;;;23.53;46.27
58686;BME280;44465;53.206;-6.106;2022-08-19T11:55:44;101233.03;;;23.54;45.92
58686;BME280;44465;53.206;-6.106;2022-08-19T11:58:11;101219.09;;;23.48;46.26
58686;BME280;44465;53.206;-6.106;2022-08-19T12:00:38;101227.16;;;23.48;46.17
58686;BME280;44465;53.206;-6.106;2022-08-19T12:03:04;101226.31;;;23.47;46.09
58686;BME280;44465;53.206;-6.106;2022-08-19T12:05:29;101219.53;;;23.40;46.08
58686;BME280;44465;53.206;-6.106;2022-08-19T12:07:55;101221.88;;;23.46;45.79
58686;BME280;44465;53.206;-6.106;2022-08-19T12:10:21;101226.03;;;23.52;46.24
58686;BME280;44465;53.206;-6.106;2022-08-19T12:12:47;101216.34;;;23.49;46.30
58686;BME280;44465;53.206;-6.106;2022-08-19T12:15:13;101220.56;;;23.53;46.01
58686;BME280;44465;53.206;-6.106;2022-08-19T12:17:42;101219.03;;;23.49;45.87
58686;BME280;44465;53.206;-6.106;2022-08-19T12:20:12;101219.59;;;23.54;46.06
58686;BME280;44465;53.206;-6.106;2022-08-19T12:22:42;101215.28;;;23.52;46.01
58686;BME280;44465;53.206;-6.106;2022-08-19T12:25:10;101217.09;;;23.51;45.73
58686;BME280;44465;53.206;-6.106;2022-08-19T12:27:37;101214.06;;;23.58;45.91
58686;BME280;44465;53.206;-6.106;2022-08-19T12:30:04;101199.50;;;23.46;46.44
58686;BME280;44465;53.206;-6.106;2022-08-19T12:32:30;101202.63;;;23.54;45.71
58686;BME280;44465;53.206;-6.106;2022-08-19T12:34:55;101206.16;;;23.54;45.74
58686;BME280;44465;53.206;-6.106;2022-08-19T12:37:21;101215.69;;;23.60;45.35
58686;BME280;44465;53.206;-6.106;2022-08-19T12:39:47;101208.75;;;23.56;44.86
58686;BME280;44465;53.206;-6.106;2022-08-19T12:42:13;101225.66;;;23.58;45.04
58686;BME280;44465;53.206;-6.106;2022-08-19T12:44:41;101217.28;;;23.48;44.87
58686;BME280;44465;53.206;-6.106;2022-08-19T12:47:09;101227.84;;;23.51;44.78
58686;BME280;44465;53.206;-6.106;2022-08-19T12:49:35;101224.81;;;23.58;44.54
58686;BME280;44465;53.206;-6.106;2022-08-19T12:52:06;101218.03;;;23.50;44.54
58686;BME280;44465;53.206;-6.106;2022-08-19T12:54:34;101234.16;;;23.50;44.78